Terminal Aerodrome Forecast
Issued by NWS

Home | Current Version | Previous Version | Graphics & Text | Print | Product List | Glossary On
Versions: 1 2 3 4 5 6 7 8 9 10 11 12 13 14 15 16 17 18 19 20 21 22 23 24 25
000
FTUS43 KBIS 180535
TAFJMS
TAF
KJMS 180535Z 1806/1906 15005KT P6SM SCT070 BKN090
     FM180900 15006KT P6SM VCSH BKN060 OVC090
      TEMPO 1809/1812 -SHRA OVC060
     FM181200 14004KT P6SM BKN070
     FM181500 18008KT P6SM FEW080 FEW250
     FM182300 13007KT P6SM FEW080 FEW250=

USA.gov is the U.S. government's official web portal to all federal, state and local government web resources and services.